Time;durP1;ratioP1;P1;durP2;ratioP2;P2;SDS_P1;SDS_P2;PMS_P1;PMS_P2;Temp;Humidity;BMP_temperature;BMP_pressure;BME280_temperature;BME280_humidity;BME280_pressure;Samples;Min_cycle;Max_cycle;Signal;HPM_P1;HPM_P2
2022/12/03 00:00:37;;;;;;;69.95;35.28;;;2.70;99.90;;;;;;5008771;28;20111;-73
2022/12/03 00:03:03;;;;;;;66.18;35.28;;;2.70;99.90;;;;;;5000518;28;20061;-73
2022/12/03 00:05:30;;;;;;;39.45;17.27;;;2.70;99.90;;;;;;5004521;28;20108;-73
2022/12/03 00:07:55;;;;;;;80.03;38.70;;;2.70;99.90;;;;;;4990935;28;20042;-73
2022/12/03 00:10:21;;;;;;;63.00;35.53;;;2.70;99.90;;;;;;4991209;28;20050;-73
2022/12/03 00:12:47;;;;;;;68.57;37.08;;;2.80;99.90;;;;;;4991409;28;20054;-73
2022/12/03 00:15:12;;;;;;;76.50;36.58;;;2.70;99.90;;;;;;4990264;28;20084;-73
2022/12/03 00:17:38;;;;;;;69.57;35.63;;;2.70;99.90;;;;;;4989934;28;20514;-73
2022/12/03 00:20:06;;;;;;;32.70;12.02;;;2.70;99.90;;;;;;4989860;28;20046;-73
2022/12/03 00:22:32;;;;;;;65.13;34.35;;;2.80;99.90;;;;;;4991464;28;20050;-73
2022/12/03 00:24:58;;;;;;;77.30;37.47;;;2.80;99.90;;;;;;4990826;28;20056;-73
2022/12/03 00:27:23;;;;;;;76.65;35.80;;;2.80;99.90;;;;;;4990828;28;20509;-73
2022/12/03 00:29:49;;;;;;;79.57;38.70;;;2.80;99.90;;;;;;5007369;28;20048;-74
2022/12/03 00:32:15;;;;;;;70.07;37.47;;;2.80;99.90;;;;;;5008522;28;20474;-73
2022/12/03 00:34:40;;;;;;;78.18;37.70;;;2.80;99.90;;;;;;4989597;28;20124;-73
2022/12/03 00:37:06;;;;;;;72.47;38.08;;;2.80;99.90;;;;;;4974210;28;20038;-74
2022/12/03 00:39:31;;;;;;;71.07;37.67;;;2.80;99.90;;;;;;4991173;28;20081;-73
2022/12/03 00:41:58;;;;;;;68.63;36.67;;;2.80;99.90;;;;;;4990004;28;20475;-73
2022/12/03 00:44:24;;;;;;;42.65;16.90;;;2.90;99.90;;;;;;4989842;28;20046;-73
2022/12/03 00:46:49;;;;;;;65.50;36.33;;;2.80;99.90;;;;;;4990003;28;20057;-73
2022/12/03 00:49:15;;;;;;;82.05;40.05;;;2.90;99.90;;;;;;4988707;28;20409;-73
2022/12/03 00:51:41;;;;;;;68.18;35.83;;;2.90;99.90;;;;;;4980288;28;20045;-73
2022/12/03 00:54:06;;;;;;;78.53;38.15;;;2.90;99.90;;;;;;4990906;28;20045;-73
2022/12/03 00:56:32;;;;;;;43.63;18.75;;;2.90;99.90;;;;;;4990585;28;20056;-74
2022/12/03 00:58:58;;;;;;;68.80;36.30;;;2.90;99.90;;;;;;4990159;28;20125;-73
2022/12/03 01:01:24;;;;;;;74.60;36.00;;;2.90;99.90;;;;;;5008022;28;20411;-73
2022/12/03 01:03:49;;;;;;;77.97;39.17;;;2.90;99.90;;;;;;4986128;28;20180;-73
2022/12/03 01:06:15;;;;;;;72.68;36.78;;;2.90;99.90;;;;;;4976827;28;20085;-74
2022/12/03 01:08:40;;;;;;;73.82;35.95;;;2.90;99.90;;;;;;4984996;28;20057;-74
2022/12/03 01:11:36;;;;;;;72.63;36.65;;;2.80;99.90;;;;;;4987279;28;20456;-73
2022/12/03 01:13:52;;;;;;;66.97;35.05;;;2.90;99.90;;;;;;4986973;28;20407;-73
2022/12/03 01:16:17;;;;;;;72.75;35.45;;;2.90;99.90;;;;;;4986360;28;20038;-73
2022/12/03 01:18:45;;;;;;;73.07;36.28;;;2.90;99.90;;;;;;4983702;28;20046;-73
2022/12/03 01:21:10;;;;;;;67.30;36.40;;;3.00;99.90;;;;;;4986239;28;20400;-73
2022/12/03 01:23:36;;;;;;;70.47;35.45;;;3.00;99.90;;;;;;4986331;28;20047;-73
2022/12/03 01:26:02;;;;;;;69.75;36.92;;;3.10;99.90;;;;;;4987404;28;20042;-73
2022/12/03 01:28:28;;;;;;;63.75;32.58;;;3.10;99.90;;;;;;4987779;28;20061;-73
2022/12/03 01:33:38;;;;;;;62.38;34.13;;;3.10;99.90;;;;;;4986544;28;20050;-73
2022/12/03 01:36:03;;;;;;;33.53;14.77;;;3.20;99.90;;;;;;4985729;28;20105;-73
2022/12/03 01:38:29;;;;;;;68.47;36.13;;;3.20;99.90;;;;;;4986511;28;20500;-73
2022/12/03 01:40:55;;;;;;;61.40;33.92;;;3.20;99.90;;;;;;4986186;28;20722;-73
2022/12/03 01:43:20;;;;;;;65.50;34.97;;;3.20;99.90;;;;;;4987015;28;20046;-73
2022/12/03 01:45:46;;;;;;;67.38;36.75;;;3.20;99.90;;;;;;4987051;28;20047;-73
2022/12/03 01:48:15;;;;;;;74.65;37.47;;;3.10;99.90;;;;;;4986568;28;20578;-73
2022/12/03 01:50:42;;;;;;;60.08;33.60;;;3.10;99.90;;;;;;5002495;28;20058;-73
2022/12/03 01:53:13;;;;;;;34.85;12.98;;;3.10;99.90;;;;;;4986097;28;20128;-73
2022/12/03 01:55:39;;;;;;;60.42;33.95;;;3.10;99.90;;;;;;4986711;28;20050;-73
2022/12/03 01:58:05;;;;;;;62.97;33.47;;;3.10;99.90;;;;;;4987891;28;20042;-73
2022/12/03 02:00:31;;;;;;;58.17;32.45;;;3.10;99.90;;;;;;4989476;28;20049;-73
2022/12/03 02:03:00;;;;;;;65.97;34.85;;;3.10;99.90;;;;;;4991807;28;20057;-73
2022/12/03 02:05:29;;;;;;;63.97;36.17;;;3.10;99.90;;;;;;5010735;28;20044;-73
2022/12/03 02:07:55;;;;;;;59.35;34.25;;;3.00;99.90;;;;;;5010846;28;20396;-73
2022/12/03 02:10:26;;;;;;;63.97;35.10;;;3.00;99.90;;;;;;5009444;28;20050;-73
2022/12/03 02:13:09;;;;;;;61.05;33.97;;;3.00;99.90;;;;;;5010853;28;20049;-73
2022/12/03 02:15:37;;;;;;;68.63;36.03;;;3.00;99.90;;;;;;4991726;28;20054;-73
2022/12/03 02:18:03;;;;;;;57.78;33.05;;;3.00;99.90;;;;;;5009334;28;20096;-73
2022/12/03 02:20:35;;;;;;;69.03;36.17;;;3.00;99.90;;;;;;4992857;28;20141;-73
2022/12/03 02:23:04;;;;;;;57.35;35.20;;;3.00;99.90;;;;;;4992823;28;20519;-73
2022/12/03 02:25:32;;;;;;;63.72;34.65;;;3.00;99.90;;;;;;4992584;28;20057;-73
2022/12/03 02:27:59;;;;;;;57.95;32.33;;;3.10;99.90;;;;;;4991011;28;20051;-73
2022/12/03 02:30:28;;;;;;;62.50;34.20;;;3.00;99.90;;;;;;4992479;28;20049;-73
2022/12/03 02:32:54;;;;;;;27.88;14.65;;;3.10;99.90;;;;;;4992810;28;20444;-73
2022/12/03 02:35:26;;;;;;;65.80;36.30;;;3.10;99.90;;;;;;4992736;28;20045;-73
2022/12/03 02:38:12;;;;;;;60.95;33.53;;;3.10;99.90;;;;;;5010557;28;20470;-73
2022/12/03 02:40:38;;;;;;;62.80;35.72;;;3.10;99.90;;;;;;4992251;28;20045;-73
2022/12/03 02:43:04;;;;;;;57.15;33.28;;;3.10;99.90;;;;;;4992742;28;20107;-73
2022/12/03 02:45:33;;;;;;;60.88;33.22;;;3.10;99.90;;;;;;4992184;28;20443;-73
2022/12/03 02:48:10;;;;;;;57.75;30.48;;;3.10;99.90;;;;;;5010010;28;20058;-73
2022/12/03 02:50:42;;;;;;;53.13;32.75;;;3.10;99.90;;;;;;4992342;28;20423;-73
2022/12/03 02:53:16;;;;;;;67.30;36.53;;;3.10;99.90;;;;;;4992795;28;20471;-73
2022/12/03 02:55:42;;;;;;;59.28;35.25;;;3.10;99.90;;;;;;4992547;28;20049;-72
2022/12/03 02:58:09;;;;;;;63.22;37.47;;;3.00;99.90;;;;;;5009385;28;20077;-73
2022/12/03 03:00:36;;;;;;;62.28;34.65;;;3.00;99.90;;;;;;5007407;28;20042;-73
2022/12/03 03:03:03;;;;;;;66.93;37.65;;;3.00;99.90;;;;;;4991868;28;20058;-73
2022/12/03 03:05:29;;;;;;;66.68;34.60;;;3.00;99.90;;;;;;4992356;28;20056;-73
2022/12/03 03:07:58;;;;;;;64.53;35.67;;;2.90;99.90;;;;;;4992510;28;20054;-73
2022/12/03 03:10:24;;;;;;;66.68;35.03;;;2.90;99.90;;;;;;4977773;28;20053;-73
2022/12/03 03:12:52;;;;;;;62.92;36.85;;;2.80;99.90;;;;;;4992699;28;20092;-73
2022/12/03 03:15:19;;;;;;;72.10;38.30;;;2.80;99.90;;;;;;4990597;28;20042;-73
2022/12/03 03:17:44;;;;;;;70.60;36.88;;;2.70;99.90;;;;;;4990850;28;20042;-73
2022/12/03 03:20:11;;;;;;;67.50;37.45;;;2.70;99.90;;;;;;4991455;28;20052;-73
2022/12/03 03:22:42;;;;;;;62.80;36.00;;;2.70;99.90;;;;;;4992430;28;20060;-73
2022/12/03 03:25:19;;;;;;;59.10;36.10;;;2.70;99.90;;;;;;4991768;28;20076;-73
2022/12/03 03:27:45;;;;;;;63.20;36.58;;;2.70;99.90;;;;;;5007478;28;20037;-73
2022/12/03 03:30:13;;;;;;;59.67;35.17;;;2.70;99.90;;;;;;5009019;28;20072;-73
2022/12/03 03:32:40;;;;;;;66.40;37.65;;;2.70;99.90;;;;;;4992109;28;20423;-73
2022/12/03 03:35:07;;;;;;;63.50;36.42;;;2.60;99.90;;;;;;5008244;28;20046;-73
2022/12/03 03:37:33;;;;;;;68.57;38.58;;;2.70;99.90;;;;;;4991751;28;20081;-73
2022/12/03 03:40:00;;;;;;;64.70;35.55;;;2.60;99.90;;;;;;4991300;28;20084;-73
2022/12/03 03:42:27;;;;;;;64.53;36.47;;;2.60;99.90;;;;;;5009053;28;20054;-73
2022/12/03 03:44:52;;;;;;;66.28;36.28;;;2.60;99.90;;;;;;5008064;28;20096;-73
2022/12/03 03:47:18;;;;;;;64.38;35.47;;;2.60;99.90;;;;;;4991317;28;20137;-73
2022/12/03 03:49:46;;;;;;;66.57;36.38;;;2.60;99.90;;;;;;4991122;28;20463;-72
2022/12/03 03:52:12;;;;;;;66.38;34.10;;;2.60;99.90;;;;;;4990500;28;20075;-73
2022/12/03 03:54:38;;;;;;;27.95;13.73;;;2.60;99.90;;;;;;4990495;28;20821;-73
2022/12/03 03:57:04;;;;;;;70.22;34.22;;;2.60;99.90;;;;;;4991509;28;20460;-73
2022/12/03 03:59:30;;;;;;;62.78;37.75;;;2.60;99.90;;;;;;4991523;28;20121;-73
2022/12/03 04:01:56;;;;;;;28.25;13.98;;;2.60;99.90;;;;;;4991450;28;20050;-72
2022/12/03 04:04:25;;;;;;;63.55;35.28;;;2.50;99.90;;;;;;5008067;28;20061;-73
2022/12/03 04:06:51;;;;;;;60.17;33.33;;;2.50;99.90;;;;;;4990736;28;20147;-73
2022/12/03 04:09:16;;;;;;;67.40;37.03;;;2.60;99.90;;;;;;4990515;28;20057;-72
2022/12/03 04:14:26;;;;;;;67.05;34.28;;;2.60;99.90;;;;;;4990416;28;20054;-73
2022/12/03 04:16:52;;;;;;;59.08;34.00;;;2.60;99.90;;;;;;4991429;28;20048;-73
2022/12/03 04:19:19;;;;;;;67.13;35.53;;;2.60;99.90;;;;;;4990478;28;20127;-73
2022/12/03 04:24:29;;;;;;;67.70;35.92;;;2.60;99.90;;;;;;4990049;28;20132;-73
2022/12/03 04:29:39;;;;;;;58.45;33.05;;;2.60;99.90;;;;;;5007279;28;20372;-73
2022/12/03 04:37:38;;;;;;;57.72;32.45;;;2.60;99.90;;;;;;4990530;28;20058;-72
2022/12/03 04:40:59;;;;;;;28.80;13.13;;;2.60;99.90;;;;;;4990670;28;20104;-72
2022/12/03 04:42:50;;;;;;;59.20;34.92;;;2.60;99.90;;;;;;4999151;28;20053;-73
2022/12/03 04:45:17;;;;;;;55.45;33.05;;;2.60;99.90;;;;;;4998088;28;20112;-73
2022/12/03 04:47:43;;;;;;;60.40;33.70;;;2.60;99.90;;;;;;4991596;28;20826;-72
2022/12/03 04:50:09;;;;;;;56.92;32.83;;;2.60;99.90;;;;;;4990243;28;20128;-72
2022/12/03 04:52:34;;;;;;;62.60;35.20;;;2.60;99.90;;;;;;5006851;28;21258;-73
2022/12/03 04:55:00;;;;;;;62.35;32.45;;;2.60;99.90;;;;;;4990478;28;20049;-72
2022/12/03 04:57:25;;;;;;;58.97;32.88;;;2.60;99.90;;;;;;4989940;28;20045;-73
2022/12/03 04:59:51;;;;;;;65.53;35.90;;;2.60;99.90;;;;;;4988579;28;20073;-72
2022/12/03 05:02:17;;;;;;;59.63;32.88;;;2.60;99.90;;;;;;4990777;28;20042;-73
2022/12/03 05:04:42;;;;;;;61.08;35.22;;;2.50;99.90;;;;;;5007234;28;20569;-72
2022/12/03 05:07:08;;;;;;;54.95;32.45;;;2.50;99.90;;;;;;5007872;28;20399;-72
2022/12/03 05:09:33;;;;;;;61.83;33.88;;;2.60;99.90;;;;;;4979271;28;20125;-73
2022/12/03 05:11:59;;;;;;;67.60;35.80;;;2.50;99.90;;;;;;4989815;28;20081;-72
2022/12/03 05:14:25;;;;;;;59.60;33.20;;;2.50;99.90;;;;;;4989713;28;20407;-73
2022/12/03 05:16:50;;;;;;;59.90;33.95;;;2.50;99.90;;;;;;4990407;28;20073;-72
2022/12/03 05:19:16;;;;;;;66.53;33.97;;;2.50;99.90;;;;;;4990059;28;20136;-72
2022/12/03 05:21:41;;;;;;;62.67;33.10;;;2.50;99.90;;;;;;5004318;28;20518;-72
2022/12/03 05:24:07;;;;;;;64.10;35.67;;;2.50;99.90;;;;;;4984024;28;20037;-72
2022/12/03 05:26:33;;;;;;;57.13;32.75;;;2.50;99.90;;;;;;4973217;28;20144;-73
2022/12/03 05:28:59;;;;;;;64.82;36.08;;;2.50;99.90;;;;;;4989879;28;20050;-72
2022/12/03 05:31:24;;;;;;;63.00;34.63;;;2.60;99.90;;;;;;4989886;28;20056;-72
2022/12/03 05:33:50;;;;;;;59.63;33.92;;;2.60;99.90;;;;;;4990462;28;20048;-72
2022/12/03 05:36:16;;;;;;;67.95;34.80;;;2.60;99.90;;;;;;4993464;28;20057;-72
2022/12/03 05:38:41;;;;;;;53.72;33.15;;;2.50;99.90;;;;;;5011285;28;20053;-73
2022/12/03 05:42:52;;;;;;;66.15;33.42;;;2.50;99.90;;;;;;4986775;28;20403;-72
2022/12/03 05:43:52;;;;;;;71.13;36.25;;;2.50;99.90;;;;;;5011050;28;20049;-72
2022/12/03 05:46:18;;;;;;;54.90;32.10;;;2.60;99.90;;;;;;4993367;28;20554;-72
2022/12/03 05:48:44;;;;;;;62.72;34.15;;;2.50;99.90;;;;;;4992647;28;20085;-72
2022/12/03 05:51:09;;;;;;;62.47;34.92;;;2.50;99.90;;;;;;4993091;28;20103;-72
2022/12/03 05:53:35;;;;;;;71.40;36.58;;;2.60;99.90;;;;;;4994041;28;20068;-72
2022/12/03 05:56:01;;;;;;;62.10;34.28;;;2.50;99.90;;;;;;4993009;28;20056;-72
2022/12/03 05:58:26;;;;;;;57.92;34.22;;;2.50;99.90;;;;;;4992732;28;20398;-71
2022/12/03 06:00:52;;;;;;;59.22;32.70;;;2.50;99.90;;;;;;4987647;28;20053;-71
2022/12/03 06:03:17;;;;;;;67.00;33.95;;;2.50;99.90;;;;;;4988834;28;20065;-73
2022/12/03 06:05:43;;;;;;;61.70;34.00;;;2.50;99.90;;;;;;4984973;28;20058;-72
2022/12/03 06:08:08;;;;;;;60.13;32.25;;;2.50;99.90;;;;;;5009042;28;20125;-72
2022/12/03 06:10:34;;;;;;;59.30;33.53;;;2.50;99.90;;;;;;4993510;28;20042;-72
2022/12/03 06:13:01;;;;;;;64.15;33.25;;;2.50;99.90;;;;;;4990660;28;20120;-72
2022/12/03 06:15:26;;;;;;;57.10;33.55;;;2.50;99.90;;;;;;4993203;28;20054;-73
2022/12/03 06:17:52;;;;;;;61.55;32.97;;;2.50;99.90;;;;;;5008733;28;20052;-72
2022/12/03 06:20:19;;;;;;;54.22;32.20;;;2.40;99.90;;;;;;4992407;28;20038;-72
2022/12/03 06:22:45;;;;;;;62.55;33.47;;;2.40;99.90;;;;;;5011234;28;20046;-72
2022/12/03 06:25:12;;;;;;;57.28;32.83;;;2.40;99.90;;;;;;5009501;28;20069;-72
2022/12/03 06:27:39;;;;;;;62.40;31.48;;;2.40;99.90;;;;;;4989648;28;20050;-72
2022/12/03 06:30:07;;;;;;;64.32;36.40;;;2.40;99.90;;;;;;4992225;28;20042;-72
2022/12/03 06:32:32;;;;;;;65.70;34.17;;;2.40;99.90;;;;;;5010403;28;20053;-72
2022/12/03 06:34:58;;;;;;;21.13;11.30;;;2.40;99.90;;;;;;4990299;28;20073;-72
2022/12/03 06:37:24;;;;;;;62.78;32.55;;;2.30;99.90;;;;;;4987712;28;20521;-72
2022/12/03 06:39:49;;;;;;;56.42;33.03;;;2.30;99.90;;;;;;4985175;28;20081;-71
2022/12/03 06:42:15;;;;;;;44.13;13.75;;;2.30;99.90;;;;;;4988078;28;20414;-71
2022/12/03 06:44:44;;;;;;;63.53;33.35;;;2.30;99.90;;;;;;4992309;28;20042;-71
2022/12/03 06:47:09;;;;;;;14.90;9.30;;;2.30;99.90;;;;;;4992350;28;20060;-72
2022/12/03 06:49:35;;;;;;;64.43;34.13;;;2.20;99.90;;;;;;5001048;28;20057;-72
2022/12/03 06:52:00;;;;;;;55.72;31.55;;;2.20;99.90;;;;;;5009714;28;20482;-72
2022/12/03 06:54:26;;;;;;;53.83;31.08;;;2.20;99.90;;;;;;4992529;28;20096;-72
2022/12/03 06:56:52;;;;;;;38.58;10.63;;;2.20;99.90;;;;;;4993208;28;20132;-71
2022/12/03 06:59:17;;;;;;;70.20;34.83;;;2.20;99.90;;;;;;4991355;28;20495;-72
2022/12/03 07:01:43;;;;;;;69.53;37.08;;;2.20;99.90;;;;;;4992528;28;20050;-71
2022/12/03 07:04:09;;;;;;;73.55;36.47;;;2.20;99.90;;;;;;5009639;28;20062;-71
2022/12/03 07:06:34;;;;;;;66.90;36.47;;;2.20;99.90;;;;;;4991541;28;20074;-72
2022/12/03 07:09:00;;;;;;;76.20;37.67;;;2.20;99.90;;;;;;5009628;28;20076;-71
2022/12/03 07:11:31;;;;;;;67.80;34.65;;;2.20;99.90;;;;;;4991850;28;20053;-73
2022/12/03 07:13:59;;;;;;;75.22;38.25;;;2.20;99.90;;;;;;4980331;28;20050;-72
2022/12/03 07:16:25;;;;;;;68.80;37.80;;;2.20;99.90;;;;;;4981135;28;20076;-71
2022/12/03 07:18:50;;;;;;;68.75;39.38;;;2.20;99.90;;;;;;4990274;28;20546;-71
2022/12/03 07:21:16;;;;;;;69.22;36.55;;;2.10;99.90;;;;;;5005247;28;20040;-72
2022/12/03 07:23:42;;;;;;;71.78;36.55;;;2.10;99.90;;;;;;4991744;28;20049;-71
2022/12/03 07:26:08;;;;;;;81.05;42.53;;;2.10;99.90;;;;;;4992243;28;20609;-72
2022/12/03 07:28:33;;;;;;;64.38;35.05;;;2.10;99.90;;;;;;4990918;28;20049;-72
2022/12/03 07:30:59;;;;;;;72.18;37.92;;;2.10;99.90;;;;;;4983556;28;20048;-71
2022/12/03 07:33:25;;;;;;;31.75;14.55;;;2.10;99.90;;;;;;4989701;28;20831;-71
2022/12/03 07:35:51;;;;;;;71.65;38.50;;;2.00;99.90;;;;;;4992177;28;20127;-72
2022/12/03 07:38:17;;;;;;;70.45;40.25;;;2.00;99.90;;;;;;4985129;28;20046;-72
2022/12/03 07:40:42;;;;;;;70.72;36.78;;;2.00;99.90;;;;;;4990858;28;20104;-71
2022/12/03 07:43:08;;;;;;;31.35;15.50;;;2.00;99.90;;;;;;4991334;28;20050;-71
2022/12/03 07:45:33;;;;;;;70.78;38.60;;;2.00;99.90;;;;;;4985046;28;20042;-72
2022/12/03 07:47:59;;;;;;;78.35;39.40;;;2.00;99.90;;;;;;4989869;28;20046;-72
2022/12/03 07:50:27;;;;;;;79.10;39.75;;;1.90;99.90;;;;;;4991758;28;20046;-72
2022/12/03 07:52:53;;;;;;;69.37;39.23;;;2.00;99.90;;;;;;4988299;28;20487;-72
2022/12/03 07:55:20;;;;;;;84.53;40.78;;;2.00;99.90;;;;;;4990400;28;20339;-71
2022/12/03 07:57:45;;;;;;;74.03;40.05;;;2.00;99.90;;;;;;5008413;28;20124;-71
2022/12/03 08:00:12;;;;;;;39.88;15.20;;;2.00;99.90;;;;;;5005944;28;20056;-72
2022/12/03 08:02:37;;;;;;;75.10;39.28;;;1.90;99.90;;;;;;4982976;28;20136;-72
2022/12/03 08:05:03;;;;;;;80.28;39.83;;;1.90;99.90;;;;;;4988925;28;20467;-71
2022/12/03 08:07:29;;;;;;;80.47;43.60;;;1.90;99.90;;;;;;4987920;28;20554;-71
2022/12/03 08:09:55;;;;;;;86.15;43.67;;;1.90;99.90;;;;;;4985210;28;20141;-71
2022/12/03 08:12:38;;;;;;;89.47;48.40;;;2.00;99.90;;;;;;4987358;28;20089;-72
2022/12/03 08:15:14;;;;;;;103.38;50.63;;;1.90;99.90;;;;;;4988689;28;20129;-72
2022/12/03 08:17:41;;;;;;;102.75;52.17;;;1.90;99.90;;;;;;4977157;28;20042;-72
2022/12/03 08:20:16;;;;;;;106.32;50.83;;;1.90;99.90;;;;;;4983200;28;20073;-72
2022/12/03 08:22:45;;;;;;;102.60;51.80;;;1.90;99.90;;;;;;5001450;28;20072;-71
2022/12/03 08:25:27;;;;;;;101.40;52.10;;;1.80;99.90;;;;;;4984755;28;20065;-72
2022/12/03 08:27:58;;;;;;;89.97;48.05;;;1.80;99.90;;;;;;4987552;28;20062;-71
2022/12/03 08:30:24;;;;;;;92.13;48.97;;;1.80;99.90;;;;;;4987948;28;20038;-72
2022/12/03 08:32:50;;;;;;;109.75;53.58;;;1.80;99.90;;;;;;4987098;28;20049;-72
2022/12/03 08:35:22;;;;;;;98.32;51.47;;;1.80;99.90;;;;;;4987134;28;20042;-72
2022/12/03 08:38:04;;;;;;;100.43;50.08;;;1.80;99.90;;;;;;4987840;28;20050;-72
2022/12/03 08:40:35;;;;;;;107.28;51.25;;;1.80;99.90;;;;;;4988026;28;20042;-72
2022/12/03 08:43:20;;;;;;;100.40;49.63;;;1.80;99.90;;;;;;4986690;28;20046;-72
2022/12/03 08:45:48;;;;;;;100.70;51.60;;;1.80;99.90;;;;;;4987024;28;20050;-72
2022/12/03 08:48:35;;;;;;;107.97;54.15;;;1.70;99.90;;;;;;4985246;28;20522;-72
2022/12/03 08:51:20;;;;;;;107.03;51.00;;;1.80;99.90;;;;;;4997786;28;20050;-72
2022/12/03 08:53:52;;;;;;;106.32;51.40;;;1.70;99.90;;;;;;4983088;28;20039;-72
2022/12/03 08:56:25;;;;;;;101.45;51.78;;;1.70;99.90;;;;;;4982898;28;20042;-72
2022/12/03 08:59:00;;;;;;;103.38;50.65;;;1.70;99.90;;;;;;4982064;28;20534;-72
2022/12/03 09:01:41;;;;;;;96.85;49.55;;;1.70;99.90;;;;;;4986210;28;20576;-72
2022/12/03 09:04:18;;;;;;;112.30;51.53;;;1.70;99.90;;;;;;4985065;28;20144;-72
2022/12/03 09:06:43;;;;;;;97.72;50.83;;;1.60;99.90;;;;;;4985984;28;20049;-72
2022/12/03 09:09:09;;;;;;;50.33;18.42;;;1.60;99.90;;;;;;4984589;28;20121;-72
2022/12/03 09:11:35;;;;;;;98.15;53.05;;;1.60;99.90;;;;;;4991006;28;20097;-72
2022/12/03 09:14:00;;;;;;;104.05;50.85;;;1.60;99.90;;;;;;4985863;28;20046;-72
2022/12/03 09:16:27;;;;;;;101.03;48.95;;;1.60;99.90;;;;;;4986289;28;20054;-72
2022/12/03 09:18:52;;;;;;;121.32;53.50;;;1.60;99.90;;;;;;4986897;28;20133;-72
2022/12/03 09:21:18;;;;;;;112.43;54.80;;;1.60;99.90;;;;;;4986996;28;20137;-72
2022/12/03 09:23:43;;;;;;;99.47;50.67;;;1.60;99.90;;;;;;4987958;28;20137;-72
2022/12/03 09:26:09;;;;;;;114.75;55.03;;;1.60;99.90;;;;;;4983085;28;20051;-72
2022/12/03 09:28:35;;;;;;;111.95;54.05;;;1.60;99.90;;;;;;4979400;28;20083;-72
2022/12/03 09:31:00;;;;;;;105.85;51.53;;;1.70;99.90;;;;;;4985739;28;20046;-71
2022/12/03 09:33:26;;;;;;;109.22;54.83;;;1.70;99.90;;;;;;4987985;28;20042;-72
2022/12/03 09:35:52;;;;;;;101.95;52.17;;;1.70;99.90;;;;;;4986207;28;20038;-72
2022/12/03 09:38:17;;;;;;;106.30;55.17;;;1.70;99.90;;;;;;4987972;28;20050;-72
2022/12/03 09:40:43;;;;;;;113.30;52.92;;;1.70;99.90;;;;;;4980745;28;20054;-73
2022/12/03 09:43:10;;;;;;;106.95;54.47;;;1.70;99.90;;;;;;4980884;28;20042;-72
2022/12/03 09:45:36;;;;;;;110.43;53.97;;;1.70;99.90;;;;;;4990564;28;20061;-71
2022/12/03 09:48:05;;;;;;;99.78;51.38;;;1.70;99.90;;;;;;4987516;28;20522;-71
2022/12/03 09:50:31;;;;;;;99.65;49.83;;;1.80;99.90;;;;;;4987575;28;20046;-71
2022/12/03 09:53:02;;;;;;;46.15;15.52;;;1.80;99.90;;;;;;4983040;28;20665;-72
2022/12/03 09:55:28;;;;;;;102.82;49.15;;;1.70;99.90;;;;;;4986088;28;20371;-71
2022/12/03 09:57:55;;;;;;;96.05;50.45;;;1.80;99.90;;;;;;4986833;28;20125;-71
2022/12/03 10:00:27;;;;;;;95.82;51.63;;;1.80;99.90;;;;;;4983682;28;20161;-72
2022/12/03 10:02:56;;;;;;;100.35;53.03;;;1.80;99.90;;;;;;4985225;28;20086;-72
2022/12/03 10:05:22;;;;;;;;;;;1.80;99.90;;;;;;4989879;28;20050;-72
2022/12/03 10:07:49;;;;;;;100.75;49.60;;;1.80;99.90;;;;;;4989651;28;19937;-72
2022/12/03 10:10:23;;;;;;;97.13;48.20;;;1.80;99.90;;;;;;4989443;28;21764;-71
2022/12/03 10:12:50;;;;;;;100.85;49.28;;;1.80;99.90;;;;;;4989643;28;20050;-72
2022/12/03 10:15:20;;;;;;;99.65;48.50;;;1.80;99.90;;;;;;4989563;28;20495;-73
2022/12/03 10:17:48;;;;;;;100.80;50.97;;;1.80;99.90;;;;;;5004127;28;20147;-72
2022/12/03 10:20:16;;;;;;;109.10;51.80;;;1.80;99.90;;;;;;4990624;28;20042;-72
2022/12/03 10:22:42;;;;;;;94.30;50.38;;;1.80;99.90;;;;;;5010866;28;20383;-72
2022/12/03 10:25:14;;;;;;;100.07;49.97;;;1.80;99.90;;;;;;4987170;28;20153;-72
2022/12/03 10:27:40;;;;;;;107.57;50.40;;;1.80;99.90;;;;;;5006378;28;20037;-72
2022/12/03 10:30:22;;;;;;;115.60;54.17;;;1.80;99.90;;;;;;5009842;28;20702;-73
2022/12/03 10:32:49;;;;;;;101.80;51.85;;;1.80;99.90;;;;;;5009883;28;20042;-72
2022/12/03 10:35:19;;;;;;;96.50;47.80;;;1.80;99.90;;;;;;4996320;28;20050;-72
2022/12/03 10:37:53;;;;;;;103.28;48.67;;;1.80;99.90;;;;;;5001250;28;20034;-72
2022/12/03 10:40:28;;;;;;;98.75;48.22;;;1.80;99.90;;;;;;4985278;28;20081;-72
2022/12/03 10:43:12;;;;;;;32.30;16.88;;;1.70;99.90;;;;;;5007103;28;20776;-72
2022/12/03 10:45:39;;;;;;;100.57;50.85;;;1.70;99.90;;;;;;4967393;28;20050;-72
2022/12/03 10:48:04;;;;;;;102.15;50.60;;;1.70;99.90;;;;;;4987945;28;20087;-72
2022/12/03 10:50:30;;;;;;;104.68;49.50;;;1.70;99.90;;;;;;4991694;28;20121;-72
2022/12/03 10:52:56;;;;;;;100.38;52.00;;;1.80;99.90;;;;;;4992441;28;20529;-72
2022/12/03 10:55:22;;;;;;;112.95;53.80;;;1.70;99.90;;;;;;5009618;28;20073;-73
2022/12/03 10:57:49;;;;;;;117.57;53.65;;;1.70;99.90;;;;;;4991485;28;20049;-73
2022/12/03 11:00:18;;;;;;;113.30;56.08;;;1.80;99.90;;;;;;4990477;28;20099;-73
2022/12/03 11:02:44;;;;;;;106.93;53.42;;;1.70;99.90;;;;;;5009357;28;20072;-72
2022/12/03 11:05:19;;;;;;;94.60;51.67;;;1.70;99.90;;;;;;4992573;28;20660;-72
2022/12/03 11:07:45;;;;;;;103.00;54.95;;;1.70;99.90;;;;;;4996675;28;20418;-72
2022/12/03 11:10:16;;;;;;;112.70;54.28;;;1.70;99.90;;;;;;4992120;28;20045;-72
2022/12/03 11:13:37;;;;;;;39.65;18.23;;;1.70;99.90;;;;;;4989753;28;20038;-72
2022/12/03 11:16:04;;;;;;;46.10;17.85;;;1.70;99.90;;;;;;4918436;29;20098;-72
2022/12/03 11:18:56;;;;;;;98.40;52.45;;;1.60;99.90;;;;;;4993619;28;20054;-72
2022/12/03 11:21:22;;;;;;;109.72;52.67;;;1.70;99.90;;;;;;4991832;28;20602;-72
2022/12/03 11:24:02;;;;;;;96.82;51.33;;;1.60;99.90;;;;;;4986110;28;20046;-72
2022/12/03 11:26:27;;;;;;;94.22;49.97;;;1.60;99.90;;;;;;5006873;28;20046;-72
2022/12/03 11:28:57;;;;;;;100.65;51.42;;;1.70;99.90;;;;;;5007099;28;20049;-72
2022/12/03 11:31:36;;;;;;;108.68;53.08;;;1.70;99.90;;;;;;5008322;28;20056;-72
2022/12/03 11:34:17;;;;;;;103.68;53.42;;;1.70;99.90;;;;;;5003385;28;20081;-72
2022/12/03 11:37:08;;;;;;;99.75;52.58;;;1.80;99.90;;;;;;5004796;28;20053;-72
2022/12/03 11:39:49;;;;;;;99.90;52.13;;;1.90;99.90;;;;;;4985049;28;20056;-72
2022/12/03 11:42:26;;;;;;;96.28;50.08;;;1.80;99.90;;;;;;5006782;28;20042;-72
2022/12/03 11:45:05;;;;;;;106.88;54.40;;;1.90;99.90;;;;;;5008881;28;20042;-72
2022/12/03 11:47:40;;;;;;;30.23;14.43;;;2.00;99.90;;;;;;4985948;28;20084;-72
2022/12/03 11:50:31;;;;;;;114.72;57.13;;;1.90;99.90;;;;;;4990279;28;20092;-72
2022/12/03 11:53:14;;;;;;;103.75;52.58;;;2.00;99.90;;;;;;5004955;28;20075;-72
2022/12/03 11:55:43;;;;;;;99.57;53.65;;;2.00;99.90;;;;;;4985315;28;20046;-72
2022/12/03 11:58:24;;;;;;;101.40;53.95;;;2.00;99.90;;;;;;5005882;28;20053;-72
2022/12/03 12:00:56;;;;;;;96.85;54.28;;;2.00;99.90;;;;;;4990396;28;20046;-72
2022/12/03 12:03:34;;;;;;;103.00;53.30;;;2.10;99.90;;;;;;5008329;28;20062;-72
2022/12/03 12:06:09;;;;;;;98.45;53.45;;;2.10;99.90;;;;;;4990693;28;20580;-73
2022/12/03 12:08:40;;;;;;;34.92;17.80;;;2.10;99.90;;;;;;4995616;28;20042;-73
2022/12/03 12:11:30;;;;;;;104.50;54.47;;;2.10;99.90;;;;;;4989563;28;20056;-73
2022/12/03 12:13:58;;;;;;;102.40;56.38;;;2.10;99.90;;;;;;4989407;28;20042;-72
2022/12/03 12:16:41;;;;;;;103.13;51.70;;;2.20;99.90;;;;;;4985255;28;20128;-72
2022/12/03 12:19:30;;;;;;;102.10;52.50;;;2.20;99.90;;;;;;5006043;28;20041;-72
2022/12/03 12:22:26;;;;;;;107.22;54.30;;;2.20;99.90;;;;;;4999968;28;20054;-73
2022/12/03 12:25:01;;;;;;;99.28;51.40;;;2.10;99.90;;;;;;4981782;28;20057;-71
2022/12/03 12:27:37;;;;;;;106.97;56.17;;;2.10;99.90;;;;;;4988562;28;20104;-73
2022/12/03 12:30:11;;;;;;;96.43;50.38;;;2.20;99.90;;;;;;4988097;28;20103;-73
2022/12/03 12:32:57;;;;;;;98.40;49.40;;;2.30;99.90;;;;;;4990653;28;20448;-72
2022/12/03 12:35:31;;;;;;;110.20;52.63;;;2.50;99.90;;;;;;4981711;28;20116;-73
2022/12/03 12:38:06;;;;;;;88.90;49.72;;;2.50;99.90;;;;;;4980697;28;20495;-73
2022/12/03 12:40:36;;;;;;;92.93;51.15;;;2.50;99.90;;;;;;5008520;28;20053;-73
2022/12/03 12:43:23;;;;;;;91.78;50.20;;;2.50;99.90;;;;;;4981371;28;20140;-73
2022/12/03 12:45:54;;;;;;;95.00;48.05;;;2.50;99.90;;;;;;4984721;28;20054;-73
2022/12/03 12:48:26;;;;;;;88.40;47.22;;;2.30;99.90;;;;;;5007293;28;20042;-72
2022/12/03 12:51:05;;;;;;;92.65;47.72;;;2.10;99.90;;;;;;4986158;28;20558;-73
2022/12/03 12:53:33;;;;;;;104.10;48.03;;;2.00;99.90;;;;;;5006456;28;20457;-73
2022/12/03 12:56:05;;;;;;;86.32;45.42;;;1.90;99.90;;;;;;4989309;28;20059;-73
2022/12/03 12:58:32;;;;;;;84.22;43.92;;;1.80;99.90;;;;;;4983114;28;20042;-71
2022/12/03 13:01:03;;;;;;;97.28;48.60;;;1.80;99.90;;;;;;4983914;28;20041;-73